createdAt,value
2017-02-14T00:00:12.456Z,0.45
2017-02-14T00:01:21.202Z,0.4
2017-02-14T00:02:30.327Z,0.47
2017-02-14T00:03:39.429Z,0.39
2017-02-14T00:04:48.152Z,0.42
2017-02-14T00:05:56.876Z,0.44
2017-02-14T00:07:05.978Z,0.49
2017-02-14T00:08:14.701Z,0.42
2017-02-14T00:09:23.842Z,0.44
2017-02-14T00:10:33.342Z,0.34
2017-02-14T00:11:42.458Z,0.42
2017-02-14T00:12:51.225Z,0.42
2017-02-14T00:13:59.966Z,0.37
2017-02-14T00:15:08.664Z,0.33
2017-02-14T00:16:17.398Z,0.33
2017-02-14T00:17:26.118Z,0.36
2017-02-14T00:18:34.837Z,0.48
2017-02-14T00:19:43.967Z,0.51
2017-02-14T00:20:52.680Z,0.55
2017-02-14T00:22:01.403Z,0.48
2017-02-14T00:23:10.519Z,0.47
2017-02-14T00:24:19.246Z,0.42
2017-02-14T00:25:28.350Z,0.55
2017-02-14T00:26:37.078Z,0.49
2017-02-14T00:27:45.814Z,0.58
2017-02-14T00:28:54.913Z,0.4
2017-02-14T00:30:04.025Z,0.55
2017-02-14T00:31:13.169Z,0.48
2017-02-14T00:32:21.893Z,0.51
2017-02-14T00:33:30.625Z,0.42
2017-02-14T00:34:39.350Z,0.44
2017-02-14T00:35:48.103Z,0.47
2017-02-14T00:36:56.865Z,0.45
2017-02-14T00:38:05.587Z,0.44
2017-02-14T00:39:14.293Z,0.4
2017-02-14T00:40:23.031Z,0.36
2017-02-14T00:41:31.735Z,0.39
2017-02-14T00:42:40.454Z,0.3
2017-02-14T00:43:49.640Z,0.33
2017-02-14T00:44:58.371Z,0.34
2017-02-14T00:46:07.483Z,0.34
2017-02-14T00:47:16.221Z,0.31
2017-02-14T00:48:24.940Z,0.3
2017-02-14T00:49:34.467Z,0.31
2017-02-14T00:50:43.984Z,0.37
2017-02-14T00:51:52.685Z,0.33
2017-02-14T00:53:01.426Z,0.39
2017-02-14T00:54:10.141Z,0.4
2017-02-14T00:55:18.853Z,0.33
2017-02-14T00:56:27.985Z,0.33
2017-02-14T00:57:36.766Z,0.3
2017-02-14T00:58:45.500Z,0.33
2017-02-14T00:59:54.230Z,0.33
2017-02-14T01:01:02.964Z,0.31
2017-02-14T01:02:11.679Z,0.34
2017-02-14T01:03:21.195Z,0.31
2017-02-14T01:04:29.916Z,0.27
2017-02-14T01:05:38.633Z,0.24
2017-02-14T01:06:47.392Z,0.24
2017-02-14T01:07:56.490Z,0.18
2017-02-14T01:09:05.232Z,0.12
2017-02-14T01:10:13.982Z,0.13
2017-02-14T01:11:22.689Z,0.13
2017-02-14T01:12:31.799Z,0
2017-02-14T01:13:40.549Z,0.01
2017-02-14T01:14:49.256Z,0.05
2017-02-14T01:15:58.374Z,0
2017-02-14T01:17:07.502Z,-0.03
2017-02-14T01:18:17.012Z,-0.03
2017-02-14T01:19:25.760Z,-0.15
2017-02-14T01:20:34.464Z,-0.1
2017-02-14T01:21:43.190Z,-0.07
2017-02-14T01:22:51.943Z,-0.07
2017-02-14T01:24:00.666Z,-0.09
2017-02-14T01:25:09.367Z,-0.2
2017-02-14T01:26:18.488Z,-0.13
2017-02-14T01:27:27.215Z,-0.13
2017-02-14T01:28:35.917Z,-0.21
2017-02-14T01:29:44.652Z,-0.13
2017-02-14T01:30:53.378Z,-0.13
2017-02-14T01:32:02.117Z,-0.17
2017-02-14T01:33:11.222Z,-0.18
2017-02-14T01:34:19.936Z,-0.09
2017-02-14T01:35:28.661Z,-0.12
2017-02-14T01:36:37.382Z,-0.09
2017-02-14T01:37:46.113Z,-0.09
2017-02-14T01:38:54.836Z,-0.07
2017-02-14T01:40:03.941Z,-0.12
2017-02-14T01:41:12.638Z,-0.09
2017-02-14T01:42:21.763Z,-0.06
2017-02-14T01:43:30.892Z,-0.02
2017-02-14T01:44:40.017Z,0.02
2017-02-14T01:45:48.730Z,0.02
2017-02-14T01:46:57.450Z,0.01
2017-02-14T01:48:06.172Z,0.05
2017-02-14T01:49:14.890Z,0
2017-02-14T01:50:23.596Z,0.05
2017-02-14T01:51:32.323Z,-0.05
2017-02-14T01:52:41.033Z,-0.07
2017-02-14T01:53:49.760Z,-0.06
2017-02-14T01:54:58.474Z,-0.07
2017-02-14T01:56:07.202Z,-0.17
2017-02-14T01:57:15.911Z,-0.18
2017-02-14T01:58:24.661Z,-0.15
2017-02-14T01:59:33.391Z,-0.18
2017-02-14T02:00:42.113Z,-0.26
2017-02-14T02:01:50.846Z,-0.23
2017-02-14T02:02:59.555Z,-0.31
2017-02-14T02:04:08.277Z,-0.31
2017-02-14T02:05:17.016Z,-0.33
2017-02-14T02:06:25.743Z,-0.28
2017-02-14T02:07:34.869Z,-0.35
2017-02-14T02:08:44.023Z,-0.35
2017-02-14T02:09:52.728Z,-0.36
2017-02-14T02:11:01.444Z,-0.38
2017-02-14T02:12:10.182Z,-0.41
2017-02-14T02:13:19.309Z,-0.41
2017-02-14T02:14:28.011Z,-0.41
2017-02-14T02:15:36.750Z,-0.53
2017-02-14T02:16:45.482Z,-0.42
2017-02-14T02:17:54.589Z,-0.45
2017-02-14T02:19:03.740Z,-0.39
2017-02-14T02:20:12.478Z,-0.51
2017-02-14T02:21:21.588Z,-0.48
2017-02-14T02:22:30.326Z,-0.51
2017-02-14T02:23:39.059Z,-0.54
2017-02-14T02:24:47.764Z,-0.54
2017-02-14T02:25:56.486Z,-0.69
2017-02-14T02:27:05.244Z,-0.51
2017-02-14T02:28:13.960Z,-0.64
2017-02-14T02:29:22.674Z,-0.62
2017-02-14T02:30:31.391Z,-0.69
2017-02-14T02:31:40.131Z,-0.75
2017-02-14T02:32:48.859Z,-0.69
2017-02-14T02:33:57.563Z,-0.69
2017-02-14T02:35:06.281Z,-0.75
2017-02-14T02:36:15.402Z,-0.69
2017-02-14T02:37:24.117Z,-0.77
2017-02-14T02:38:33.227Z,-0.74
2017-02-14T02:39:41.998Z,-0.74
2017-02-14T02:40:50.708Z,-0.75
2017-02-14T02:41:59.815Z,-0.77
2017-02-14T02:43:08.557Z,-0.78
2017-02-14T02:44:17.311Z,-0.78
2017-02-14T02:45:26.031Z,-0.75
2017-02-14T02:46:34.751Z,-0.72
2017-02-14T02:47:43.489Z,-0.7
2017-02-14T02:48:52.216Z,-0.69
2017-02-14T02:50:00.921Z,-0.75
2017-02-14T02:51:09.618Z,-0.74
2017-02-14T02:52:18.343Z,-0.77
2017-02-14T02:53:27.054Z,-0.78
2017-02-14T02:54:35.754Z,-0.87
2017-02-14T02:55:44.474Z,-0.84
2017-02-14T02:56:53.218Z,-0.82
2017-02-14T02:58:01.920Z,-0.99
2017-02-14T02:59:11.036Z,-0.84
2017-02-14T03:00:19.733Z,-0.87
2017-02-14T03:01:28.466Z,-0.91
2017-02-14T03:02:37.584Z,-0.93
2017-02-14T03:03:46.279Z,-0.81
2017-02-14T03:04:55.401Z,-0.77
2017-02-14T03:06:04.525Z,-0.78
2017-02-14T03:07:13.231Z,-0.77
2017-02-14T03:08:21.949Z,-0.66
2017-02-14T03:09:30.683Z,-0.6
2017-02-14T03:10:39.408Z,-0.57
2017-02-14T03:11:48.126Z,-0.69
2017-02-14T03:12:56.860Z,-0.66
2017-02-14T03:14:05.565Z,-0.64
2017-02-14T03:15:14.283Z,-0.54
2017-02-14T03:16:23.000Z,-0.59
2017-02-14T03:17:31.719Z,-0.53
2017-02-14T03:18:40.434Z,-0.49
2017-02-14T03:19:49.156Z,-0.51
2017-02-14T03:20:57.925Z,-0.44
2017-02-14T03:22:06.663Z,-0.38
2017-02-14T03:23:15.386Z,-0.41
2017-02-14T03:24:24.103Z,-0.31
2017-02-14T03:25:32.846Z,-0.13
2017-02-14T03:26:41.624Z,-0.07
2017-02-14T03:27:50.344Z,-0.02
2017-02-14T03:28:59.083Z,0.01
2017-02-14T03:30:07.810Z,0.02
2017-02-14T03:31:16.951Z,0.09
2017-02-14T03:32:25.656Z,0.02
2017-02-14T03:33:34.757Z,0.11
2017-02-14T03:34:43.491Z,-0.02
2017-02-14T03:35:52.207Z,0
2017-02-14T03:37:00.916Z,0.01
2017-02-14T03:38:09.639Z,0.02
2017-02-14T03:39:19.167Z,-0.02
2017-02-14T03:40:27.878Z,-0.07
2017-02-14T03:41:36.993Z,0.08
2017-02-14T03:42:46.111Z,0.08
2017-02-14T03:43:55.223Z,0.13
2017-02-14T03:45:04.333Z,0.13
2017-02-14T03:46:13.065Z,0.05
2017-02-14T03:47:21.807Z,0.09
2017-02-14T03:48:30.939Z,0.12
2017-02-14T03:49:40.031Z,0.05
2017-02-14T03:50:48.793Z,0.06
2017-02-14T03:51:57.901Z,0
2017-02-14T03:53:06.612Z,-0.05
2017-02-14T03:54:15.329Z,-0.13
2017-02-14T03:55:24.449Z,-0.13
2017-02-14T03:56:33.155Z,-0.23
2017-02-14T03:57:41.857Z,-0.21
2017-02-14T03:58:50.587Z,-0.13
2017-02-14T03:59:59.335Z,-0.15
2017-02-14T04:01:08.069Z,-0.18
2017-02-14T04:02:17.577Z,-0.12
2017-02-14T04:03:26.686Z,-0.07
2017-02-14T04:04:35.823Z,-0.1
2017-02-14T04:05:44.547Z,-0.17
2017-02-14T04:06:53.258Z,-0.21
2017-02-14T04:08:01.995Z,-0.13
2017-02-14T04:09:11.118Z,-0.28
2017-02-14T04:10:19.823Z,-0.26
2017-02-14T04:11:28.549Z,-0.2
2017-02-14T04:12:37.295Z,-0.17
2017-02-14T04:13:46.399Z,-0.26
2017-02-14T04:14:55.125Z,-0.24
2017-02-14T04:16:03.876Z,-0.33
2017-02-14T04:17:12.978Z,-0.24
2017-02-14T04:18:21.709Z,-0.21
2017-02-14T04:19:30.833Z,-0.26
2017-02-14T04:20:39.569Z,-0.15
2017-02-14T04:21:48.296Z,-0.13
2017-02-14T04:22:57.027Z,-0.02
2017-02-14T04:24:06.149Z,-0.1
2017-02-14T04:25:14.865Z,-0.17
2017-02-14T04:26:23.638Z,-0.13
2017-02-14T04:27:32.372Z,-0.24
2017-02-14T04:28:41.127Z,-0.2
2017-02-14T04:29:50.251Z,-0.21
2017-02-14T04:30:58.966Z,-0.28
2017-02-14T04:32:07.709Z,-0.28
2017-02-14T04:33:16.420Z,-0.45
2017-02-14T04:34:25.142Z,-0.44
2017-02-14T04:35:34.263Z,-0.42
2017-02-14T04:36:42.995Z,-0.39
2017-02-14T04:37:51.726Z,-0.41
2017-02-14T04:39:00.448Z,-0.39
2017-02-14T04:40:09.171Z,-0.36
2017-02-14T04:41:18.299Z,-0.28
2017-02-14T04:42:27.036Z,-0.36
2017-02-14T04:43:36.157Z,-0.33
2017-02-14T04:44:44.965Z,-0.44
2017-02-14T04:45:53.701Z,-0.39
2017-02-14T04:47:03.206Z,-0.42
2017-02-14T04:48:11.948Z,-0.39
2017-02-14T04:49:21.053Z,-0.36
2017-02-14T04:50:29.775Z,-0.42
2017-02-14T04:51:38.532Z,-0.38
2017-02-14T04:52:47.263Z,-0.46
2017-02-14T04:53:55.977Z,-0.44
2017-02-14T04:55:04.710Z,-0.49
2017-02-14T04:56:13.428Z,-0.46
2017-02-14T04:57:22.181Z,-0.39
2017-02-14T04:58:30.906Z,-0.41
2017-02-14T04:59:40.011Z,-0.36
2017-02-14T05:00:48.749Z,-0.28
2017-02-14T05:01:57.473Z,-0.28
2017-02-14T05:03:06.181Z,-0.31
2017-02-14T05:04:14.909Z,-0.36
2017-02-14T05:05:23.625Z,-0.38
2017-02-14T05:06:32.726Z,-0.44
2017-02-14T05:07:41.454Z,-0.36
2017-02-14T05:08:50.210Z,-0.41
2017-02-14T05:09:58.915Z,-0.42
2017-02-14T05:11:07.663Z,-0.49
2017-02-14T05:12:16.786Z,-0.36
2017-02-14T05:13:25.900Z,-0.33
2017-02-14T05:14:34.623Z,-0.21
2017-02-14T05:15:43.324Z,-0.23
2017-02-14T05:16:52.450Z,-0.33
2017-02-14T05:18:01.175Z,-0.17
2017-02-14T05:19:10.283Z,-0.3
2017-02-14T05:20:19.024Z,-0.42
2017-02-14T05:21:28.178Z,-0.38
2017-02-14T05:22:36.894Z,-0.35
2017-02-14T05:23:46.399Z,-0.2
2017-02-14T05:24:55.138Z,-0.1
2017-02-14T05:26:03.843Z,-0.09
2017-02-14T05:27:12.564Z,-0.07
2017-02-14T05:28:21.280Z,0
2017-02-14T05:29:30.011Z,-0.07
2017-02-14T05:30:39.143Z,-0.05
2017-02-14T05:31:47.850Z,-0.12
2017-02-14T05:32:56.546Z,-0.13
2017-02-14T05:34:05.679Z,-0.17
2017-02-14T05:35:14.385Z,-0.18
2017-02-14T05:36:23.113Z,-0.21
2017-02-14T05:37:31.871Z,-0.26
2017-02-14T05:38:40.584Z,-0.2
2017-02-14T05:39:49.297Z,-0.26
2017-02-14T05:40:58.038Z,-0.28
2017-02-14T05:42:06.751Z,-0.13
2017-02-14T05:43:15.873Z,-0.15
2017-02-14T05:44:24.983Z,-0.15
2017-02-14T05:45:34.079Z,-0.18
2017-02-14T05:46:42.859Z,-0.1
2017-02-14T05:47:51.605Z,-0.13
2017-02-14T05:49:00.335Z,-0.12
2017-02-14T05:50:09.067Z,-0.21
2017-02-14T05:51:17.787Z,-0.23
2017-02-14T05:52:26.898Z,-0.23
2017-02-14T05:53:35.638Z,-0.24
2017-02-14T05:54:44.378Z,-0.26
2017-02-14T05:55:53.080Z,-0.26
2017-02-14T05:57:02.615Z,-0.24
2017-02-14T05:58:11.349Z,-0.36
2017-02-14T05:59:20.066Z,-0.28
2017-02-14T06:00:28.812Z,-0.41
2017-02-14T06:01:37.937Z,-0.39
2017-02-14T06:02:46.682Z,-0.45
2017-02-14T06:03:55.422Z,-0.53
2017-02-14T06:05:04.123Z,-0.41
2017-02-14T06:06:12.856Z,-0.42
2017-02-14T06:07:21.583Z,-0.38
2017-02-14T06:08:30.714Z,-0.39
2017-02-14T06:09:39.434Z,-0.33
2017-02-14T06:10:48.169Z,-0.28
2017-02-14T06:11:56.884Z,-0.28
2017-02-14T06:13:05.609Z,-0.26
2017-02-14T06:14:14.747Z,-0.28
2017-02-14T06:15:23.463Z,-0.26
2017-02-14T06:16:32.194Z,-0.21
2017-02-14T06:17:40.921Z,-0.23
2017-02-14T06:18:49.688Z,-0.23
2017-02-14T06:19:58.394Z,-0.26
2017-02-14T06:21:07.516Z,-0.26
2017-02-14T06:22:17.052Z,-0.17
2017-02-14T06:23:26.150Z,-0.05
2017-02-14T06:24:34.872Z,-0.07
2017-02-14T06:25:43.978Z,-0.1
2017-02-14T06:26:53.094Z,-0.17
2017-02-14T06:28:01.807Z,-0.2
2017-02-14T06:29:10.534Z,-0.1
2017-02-14T06:30:19.257Z,-0.18
2017-02-14T06:31:28.002Z,-0.13
2017-02-14T06:32:37.120Z,-0.2
2017-02-14T06:33:45.886Z,-0.24
2017-02-14T06:34:54.617Z,-0.31
2017-02-14T06:36:03.325Z,-0.24
2017-02-14T06:37:12.028Z,-0.38
2017-02-14T06:38:20.779Z,-0.31
2017-02-14T06:39:29.497Z,-0.28
2017-02-14T06:40:38.238Z,-0.36
2017-02-14T06:41:46.962Z,-0.39
2017-02-14T06:42:55.677Z,-0.36
2017-02-14T06:44:04.403Z,-0.42
2017-02-14T06:45:13.113Z,-0.41
2017-02-14T06:46:21.868Z,-0.45
2017-02-14T06:47:31.001Z,-0.49
2017-02-14T06:48:39.712Z,-0.59
2017-02-14T06:49:48.427Z,-0.57
2017-02-14T06:50:57.156Z,-0.53
2017-02-14T06:52:06.707Z,-0.54
2017-02-14T06:53:15.414Z,-0.51
2017-02-14T06:54:24.569Z,-0.51
2017-02-14T06:55:33.297Z,-0.49
2017-02-14T06:56:42.437Z,-0.46
2017-02-14T06:57:51.570Z,-0.41
2017-02-14T06:59:00.296Z,-0.42
2017-02-14T07:00:09.059Z,-0.39
2017-02-14T07:01:17.803Z,-0.49
2017-02-14T07:02:26.521Z,-0.33
2017-02-14T07:03:35.644Z,-0.31
2017-02-14T07:04:44.374Z,-0.36
2017-02-14T07:05:53.095Z,-0.41
2017-02-14T07:07:02.213Z,-0.39
2017-02-14T07:08:10.936Z,-0.39
2017-02-14T07:09:19.647Z,-0.35
2017-02-14T07:10:29.169Z,-0.17
2017-02-14T07:11:37.896Z,-0.15
2017-02-14T07:12:46.627Z,-0.15
2017-02-14T07:13:55.387Z,-0.1
2017-02-14T07:15:04.107Z,-0.07
2017-02-14T07:16:12.863Z,-0.05
2017-02-14T07:17:21.598Z,-0.02
2017-02-14T07:18:30.305Z,0.02
2017-02-14T07:19:39.037Z,-0.02
2017-02-14T07:20:47.763Z,0.15
2017-02-14T07:21:56.878Z,0.05
2017-02-14T07:23:05.988Z,0.08
2017-02-14T07:24:14.706Z,0.13
2017-02-14T07:25:23.423Z,0.09
2017-02-14T07:26:32.598Z,0.13
2017-02-14T07:27:41.297Z,0.2
2017-02-14T07:28:50.012Z,0.18
2017-02-14T07:29:58.767Z,0.19
2017-02-14T07:31:07.494Z,0.29
2017-02-14T07:32:16.202Z,0.37
2017-02-14T07:33:25.338Z,0.34
2017-02-14T07:34:34.077Z,0.39
2017-02-14T07:35:42.827Z,0.39
2017-02-14T07:36:51.557Z,0.4
2017-02-14T07:38:00.279Z,0.48
2017-02-14T07:39:08.998Z,0.48
2017-02-14T07:40:17.739Z,0.47
2017-02-14T07:41:26.455Z,0.48
2017-02-14T07:42:35.248Z,0.58
2017-02-14T07:43:43.970Z,0.67
2017-02-14T07:44:52.679Z,0.7
2017-02-14T07:46:02.185Z,0.81
2017-02-14T07:47:10.917Z,0.77
2017-02-14T07:48:19.631Z,0.82
2017-02-14T07:49:28.365Z,0.89
2017-02-14T07:50:37.095Z,0.89
2017-02-14T07:51:46.212Z,0.84
2017-02-14T07:52:54.931Z,0.89
2017-02-14T07:54:03.651Z,0.91
2017-02-14T07:55:12.393Z,1.02
2017-02-14T07:56:21.518Z,1.03
2017-02-14T07:57:30.239Z,1.1
2017-02-14T07:58:39.001Z,1.06
2017-02-14T07:59:48.135Z,1.02
2017-02-14T08:00:56.860Z,1.02
2017-02-14T08:02:05.621Z,1.1
2017-02-14T08:03:14.352Z,1.09
2017-02-14T08:04:23.358Z,1.16
2017-02-14T08:05:32.475Z,1.14
2017-02-14T08:06:41.616Z,1.16
2017-02-14T08:07:50.324Z,1.25
2017-02-14T08:08:59.065Z,1.32
2017-02-14T08:10:07.825Z,1.42
2017-02-14T08:11:17.764Z,1.46
2017-02-14T08:12:26.872Z,1.49
2017-02-14T08:13:35.606Z,1.63
2017-02-14T08:14:44.350Z,1.6
2017-02-14T08:15:53.075Z,1.66
2017-02-14T08:17:02.289Z,1.61
2017-02-14T08:18:11.128Z,1.75
2017-02-14T08:19:20.240Z,1.75
2017-02-14T08:20:28.971Z,1.76
2017-02-14T08:21:37.716Z,1.88
2017-02-14T08:22:46.452Z,1.85
2017-02-14T08:23:55.179Z,1.93
2017-02-14T08:25:04.676Z,1.92
2017-02-14T08:26:13.423Z,1.93
2017-02-14T08:27:22.148Z,1.95
2017-02-14T08:28:30.876Z,2.05
2017-02-14T08:29:39.594Z,2.03
2017-02-14T08:30:48.313Z,2.1
2017-02-14T08:31:57.023Z,2.19
2017-02-14T08:33:06.161Z,2.21
2017-02-14T08:34:14.889Z,2.3
2017-02-14T08:35:24.043Z,2.25
2017-02-14T08:36:32.767Z,2.34
2017-02-14T08:37:41.477Z,2.43
2017-02-14T08:38:50.211Z,2.51
2017-02-14T08:39:58.963Z,2.54
2017-02-14T08:41:07.679Z,2.65
2017-02-14T08:42:17.120Z,2.75
2017-02-14T08:43:27.374Z,2.75
2017-02-14T08:44:38.873Z,2.9
2017-02-14T08:45:47.588Z,2.9
2017-02-14T08:46:56.315Z,2.94
2017-02-14T08:48:05.062Z,2.95
2017-02-14T08:49:14.212Z,2.98
2017-02-14T08:50:23.738Z,2.94
2017-02-14T08:51:32.885Z,2.97
2017-02-14T08:52:41.632Z,2.98
2017-02-14T08:53:50.386Z,3.15
2017-02-14T08:54:59.496Z,3.03
2017-02-14T08:56:08.646Z,3.21
2017-02-14T08:57:17.752Z,3.19
2017-02-14T08:58:26.480Z,3.19
2017-02-14T08:59:35.218Z,3.36
2017-02-14T09:00:44.339Z,3.45
2017-02-14T09:01:53.447Z,3.43
2017-02-14T09:03:02.221Z,3.36
2017-02-14T09:04:10.967Z,3.56
2017-02-14T09:05:20.073Z,3.5
2017-02-14T09:06:28.788Z,3.46
2017-02-14T09:07:37.521Z,3.52
2017-02-14T09:08:46.243Z,3.5
2017-02-14T09:09:54.967Z,3.52
2017-02-14T09:11:04.121Z,3.63
2017-02-14T09:12:12.832Z,3.66
2017-02-14T09:13:21.959Z,3.68
2017-02-14T09:14:31.093Z,3.64
2017-02-14T09:15:40.231Z,3.7
2017-02-14T09:16:49.326Z,3.77
2017-02-14T09:17:58.454Z,3.76
2017-02-14T09:19:07.569Z,3.82
2017-02-14T09:20:16.271Z,3.78
2017-02-14T09:21:25.392Z,3.76
2017-02-14T09:22:34.111Z,3.85
2017-02-14T09:23:43.251Z,3.88
2017-02-14T09:24:51.964Z,3.91
2017-02-14T09:26:00.680Z,3.92
2017-02-14T09:27:09.409Z,3.94
2017-02-14T09:28:18.159Z,3.94
2017-02-14T09:29:26.894Z,4.06
2017-02-14T09:30:36.065Z,4.16
2017-02-14T09:31:44.801Z,4.13
2017-02-14T09:32:53.915Z,4.1
2017-02-14T09:34:03.031Z,4.12
2017-02-14T09:35:12.151Z,4.27
2017-02-14T09:36:20.880Z,4.28
2017-02-14T09:37:29.628Z,4.3
2017-02-14T09:38:38.347Z,4.36
2017-02-14T09:39:47.107Z,4.39
2017-02-14T09:40:55.841Z,4.4
2017-02-14T09:42:04.554Z,4.45
2017-02-14T09:43:13.274Z,4.46
2017-02-14T09:44:22.048Z,4.57
2017-02-14T09:45:31.184Z,4.53
2017-02-14T09:46:39.919Z,4.58
2017-02-14T09:47:49.037Z,4.61
2017-02-14T09:48:58.556Z,4.6
2017-02-14T09:50:07.680Z,4.66
2017-02-14T09:51:16.400Z,4.67
2017-02-14T09:52:25.132Z,4.7
2017-02-14T09:53:33.872Z,4.68
2017-02-14T09:54:42.614Z,4.64
2017-02-14T09:55:51.329Z,4.75
2017-02-14T09:57:00.059Z,4.84
2017-02-14T09:58:09.185Z,4.79
2017-02-14T09:59:17.888Z,4.75
2017-02-14T10:00:26.644Z,4.79
2017-02-14T10:01:35.359Z,4.84
2017-02-14T10:02:44.077Z,4.92
2017-02-14T10:03:53.204Z,4.89
2017-02-14T10:05:01.927Z,4.94
2017-02-14T10:06:11.369Z,4.95
2017-02-14T10:07:20.113Z,5
2017-02-14T10:08:28.888Z,4.92
2017-02-14T10:09:37.620Z,4.95
2017-02-14T10:10:46.388Z,5.04
2017-02-14T10:11:55.934Z,5.08
2017-02-14T10:13:04.656Z,5.18
2017-02-14T10:14:13.387Z,5.18
2017-02-14T10:15:22.148Z,5.19
2017-02-14T10:16:30.876Z,5.18
2017-02-14T10:17:39.590Z,5.2
2017-02-14T10:18:48.329Z,5.15
2017-02-14T10:19:57.059Z,5.2
2017-02-14T10:21:05.787Z,5.28
2017-02-14T10:22:14.905Z,5.36
2017-02-14T10:23:23.643Z,5.41
2017-02-14T10:24:32.371Z,5.4
2017-02-14T10:25:41.497Z,5.38
2017-02-14T10:26:50.613Z,5.38
2017-02-14T10:27:59.353Z,5.44
2017-02-14T10:29:08.064Z,5.51
2017-02-14T10:30:16.822Z,5.47
2017-02-14T10:31:25.554Z,5.51
2017-02-14T10:32:34.700Z,5.47
2017-02-14T10:33:43.422Z,5.61
2017-02-14T10:34:52.552Z,5.59
2017-02-14T10:36:01.298Z,5.52
2017-02-14T10:37:10.426Z,5.61
2017-02-14T10:38:19.150Z,5.64
2017-02-14T10:39:27.870Z,5.64
2017-02-14T10:40:36.629Z,5.64
2017-02-14T10:41:45.764Z,5.69
2017-02-14T10:42:54.884Z,5.62
2017-02-14T10:44:03.629Z,5.76
2017-02-14T10:45:12.363Z,5.74
2017-02-14T10:46:21.103Z,5.79
2017-02-14T10:47:29.868Z,5.81
2017-02-14T10:48:38.602Z,5.87
2017-02-14T10:49:47.333Z,5.87
2017-02-14T10:50:56.058Z,5.8
2017-02-14T10:52:04.777Z,5.83
2017-02-14T10:53:13.532Z,5.84
2017-02-14T10:54:22.276Z,5.79
2017-02-14T10:55:31.006Z,5.8
2017-02-14T10:56:39.749Z,5.94
2017-02-14T10:57:48.534Z,5.98
2017-02-14T10:58:57.233Z,5.97
2017-02-14T11:00:05.966Z,5.95
2017-02-14T11:01:14.710Z,6.07
2017-02-14T11:02:23.447Z,6.12
2017-02-14T11:03:32.185Z,6.13
2017-02-14T11:04:40.921Z,6.13
2017-02-14T11:05:49.685Z,6.16
2017-02-14T11:06:58.419Z,6.29
2017-02-14T11:08:07.528Z,6.2
2017-02-14T11:09:16.247Z,6.25
2017-02-14T11:10:24.982Z,6.26
2017-02-14T11:11:33.713Z,6.29
2017-02-14T11:12:42.433Z,6.31
2017-02-14T11:13:51.173Z,6.35
2017-02-14T11:14:59.896Z,6.38
2017-02-14T11:16:09.032Z,6.35
2017-02-14T11:17:17.773Z,6.34
2017-02-14T11:18:26.510Z,6.38
2017-02-14T11:19:36.051Z,6.41
2017-02-14T11:20:45.219Z,6.39
2017-02-14T11:21:54.444Z,6.47
2017-02-14T11:23:04.162Z,6.41
2017-02-14T11:24:12.882Z,6.49
2017-02-14T11:25:21.589Z,6.5
2017-02-14T11:26:30.366Z,6.47
2017-02-14T11:27:39.099Z,6.49
2017-02-14T11:28:48.231Z,6.56
2017-02-14T11:29:56.962Z,6.6
2017-02-14T11:31:06.103Z,6.68
2017-02-14T11:32:15.203Z,6.62
2017-02-14T11:33:24.346Z,6.64
2017-02-14T11:34:33.857Z,6.6
2017-02-14T11:35:42.977Z,6.67
2017-02-14T11:36:51.726Z,6.71
2017-02-14T11:38:00.449Z,6.72
2017-02-14T11:39:09.178Z,6.78
2017-02-14T11:40:18.368Z,6.78
2017-02-14T11:41:27.070Z,6.74
2017-02-14T11:42:36.182Z,6.85
2017-02-14T11:43:45.351Z,6.77
2017-02-14T11:44:54.087Z,6.89
2017-02-14T11:46:02.802Z,6.89
2017-02-14T11:47:11.958Z,6.9
2017-02-14T11:48:20.677Z,6.95
2017-02-14T11:49:29.405Z,6.86
2017-02-14T11:50:38.928Z,7.03
2017-02-14T11:51:47.648Z,7
2017-02-14T11:52:56.455Z,7.01
2017-02-14T11:54:05.184Z,7.04
2017-02-14T11:55:13.918Z,7.1
2017-02-14T11:56:22.645Z,7.1
2017-02-14T11:57:31.398Z,7.19
2017-02-14T11:58:40.505Z,7.19
2017-02-14T11:59:49.247Z,7.29
2017-02-14T12:00:57.984Z,7.29
2017-02-14T12:02:06.715Z,7.4
2017-02-14T12:03:15.461Z,7.39
2017-02-14T12:04:24.184Z,7.44
2017-02-14T12:05:32.916Z,7.43
2017-02-14T12:06:41.661Z,7.41
2017-02-14T12:07:50.787Z,7.46
2017-02-14T12:09:00.287Z,7.46
2017-02-14T12:10:09.090Z,7.53
2017-02-14T12:11:17.836Z,7.58
2017-02-14T12:12:26.672Z,7.5
2017-02-14T12:13:35.451Z,7.53
2017-02-14T12:14:44.591Z,7.72
2017-02-14T12:15:53.820Z,7.7
2017-02-14T12:17:02.614Z,7.67
2017-02-14T12:18:11.333Z,7.75
2017-02-14T12:19:20.081Z,7.83
2017-02-14T12:20:28.845Z,7.8
2017-02-14T12:21:37.600Z,7.78
2017-02-14T12:22:46.318Z,7.78
2017-02-14T12:23:55.182Z,7.74
2017-02-14T12:25:04.318Z,7.84
2017-02-14T12:26:13.027Z,7.88
2017-02-14T12:27:21.769Z,7.87
2017-02-14T12:28:30.489Z,7.93
2017-02-14T12:29:39.197Z,7.91
2017-02-14T12:30:48.354Z,7.98
2017-02-14T12:31:57.085Z,8.01
2017-02-14T12:33:06.231Z,8.14
2017-02-14T12:34:14.971Z,8.13
2017-02-14T12:35:23.697Z,8.31
2017-02-14T12:36:32.834Z,8.32
2017-02-14T12:37:41.570Z,8.35
2017-02-14T12:38:50.283Z,8.39
2017-02-14T12:39:59.027Z,8.42
2017-02-14T12:41:07.750Z,8.45
2017-02-14T12:42:16.479Z,8.45
2017-02-14T12:43:25.216Z,8.42
2017-02-14T12:44:34.349Z,8.45
2017-02-14T12:45:43.470Z,8.42
2017-02-14T12:46:52.604Z,8.5
2017-02-14T12:48:01.755Z,8.56
2017-02-14T12:49:10.873Z,8.61
2017-02-14T12:50:19.987Z,8.71
2017-02-14T12:51:29.106Z,8.72
2017-02-14T12:52:37.852Z,8.71
2017-02-14T12:53:46.581Z,8.6
2017-02-14T12:54:55.300Z,8.71
2017-02-14T12:56:04.039Z,8.63
2017-02-14T12:57:12.779Z,8.63
2017-02-14T12:58:21.886Z,8.63
2017-02-14T12:59:31.093Z,8.82
2017-02-14T13:00:39.864Z,8.95
2017-02-14T13:01:48.644Z,8.9
2017-02-14T13:02:57.367Z,8.95
2017-02-14T13:04:06.197Z,8.89
2017-02-14T13:05:14.920Z,8.9
2017-02-14T13:06:23.783Z,8.93
2017-02-14T13:07:32.502Z,8.86
2017-02-14T13:08:41.230Z,8.82
2017-02-14T13:09:50.378Z,8.79
2017-02-14T13:10:59.095Z,8.72
2017-02-14T13:12:07.812Z,8.78
2017-02-14T13:13:16.957Z,8.84
2017-02-14T13:14:25.677Z,8.81
2017-02-14T13:15:34.394Z,8.89
2017-02-14T13:16:43.143Z,8.87
2017-02-14T13:17:51.925Z,8.86
2017-02-14T13:19:00.687Z,8.92
2017-02-14T13:20:09.795Z,8.87
2017-02-14T13:21:18.530Z,8.89
2017-02-14T13:22:27.688Z,8.92
2017-02-14T13:23:36.441Z,8.92
2017-02-14T13:24:45.183Z,8.84
2017-02-14T13:25:53.947Z,8.92
2017-02-14T13:27:02.685Z,8.84
2017-02-14T13:28:11.418Z,8.86
2017-02-14T13:29:20.163Z,8.79
2017-02-14T13:30:28.936Z,8.82
2017-02-14T13:31:37.684Z,8.9
2017-02-14T13:32:46.407Z,8.89
2017-02-14T13:33:55.118Z,8.99
2017-02-14T13:35:04.651Z,9.02
2017-02-14T13:36:13.779Z,9.18
2017-02-14T13:37:22.915Z,9.21
2017-02-14T13:38:32.083Z,9.19
2017-02-14T13:39:40.835Z,9.34
2017-02-14T13:40:49.542Z,9.26
2017-02-14T13:41:58.289Z,9.22
2017-02-14T13:43:07.029Z,9.26
2017-02-14T13:44:15.767Z,9.19
2017-02-14T13:45:24.905Z,9.21
2017-02-14T13:46:33.632Z,9.18
2017-02-14T13:47:42.376Z,9.22
2017-02-14T13:48:51.532Z,9.16
2017-02-14T13:50:00.260Z,9.33
2017-02-14T13:51:08.982Z,9.34
2017-02-14T13:52:17.720Z,9.36
2017-02-14T13:53:26.450Z,9.29
2017-02-14T13:54:35.600Z,9.31
2017-02-14T13:55:44.744Z,9.33
2017-02-14T13:56:53.470Z,9.36
2017-02-14T13:58:02.406Z,9.36
2017-02-14T13:59:11.176Z,9.31
2017-02-14T14:00:19.905Z,9.4
2017-02-14T14:01:29.042Z,9.3
2017-02-14T14:02:37.801Z,9.16
2017-02-14T14:03:46.537Z,9.24
2017-02-14T14:04:55.259Z,9.22
2017-02-14T14:06:04.412Z,9.22
2017-02-14T14:07:13.144Z,9.15
2017-02-14T14:08:21.863Z,9.29
2017-02-14T14:09:30.627Z,9.22
2017-02-14T14:10:39.376Z,9.21
2017-02-14T14:11:48.506Z,9.16
2017-02-14T14:12:57.222Z,9.15
2017-02-14T14:14:05.955Z,9.19
2017-02-14T14:15:14.686Z,9.15
2017-02-14T14:16:23.813Z,9.21
2017-02-14T14:17:32.554Z,9.16
2017-02-14T14:18:41.283Z,9.24
2017-02-14T14:19:50.010Z,9.18
2017-02-14T14:20:58.741Z,9.22
2017-02-14T14:22:07.903Z,9.15
2017-02-14T14:23:16.680Z,9.13
2017-02-14T14:24:25.807Z,9.09
2017-02-14T14:25:34.551Z,9.09
2017-02-14T14:26:43.293Z,9.08
2017-02-14T14:27:52.023Z,9
2017-02-14T14:29:00.738Z,9.02
2017-02-14T14:30:09.863Z,9.03
2017-02-14T14:31:18.590Z,9.05
2017-02-14T14:32:27.337Z,8.95
2017-02-14T14:33:36.082Z,8.99
2017-02-14T14:34:44.810Z,8.95
2017-02-14T14:35:53.571Z,8.93
2017-02-14T14:37:02.346Z,8.95
2017-02-14T14:38:11.051Z,9.05
2017-02-14T14:39:20.193Z,9
2017-02-14T14:40:29.323Z,8.96
2017-02-14T14:41:38.044Z,8.97
2017-02-14T14:42:47.191Z,8.96
2017-02-14T14:43:55.938Z,8.89
2017-02-14T14:45:04.651Z,8.96
2017-02-14T14:46:13.776Z,8.93
2017-02-14T14:47:22.493Z,8.95
2017-02-14T14:48:31.245Z,8.99
2017-02-14T14:49:40.386Z,9.02
2017-02-14T14:50:49.110Z,9.08
2017-02-14T14:51:57.849Z,9.15
2017-02-14T14:53:06.991Z,9.15
2017-02-14T14:54:15.737Z,9.03
2017-02-14T14:55:24.488Z,9.03
2017-02-14T14:56:33.219Z,9.03
2017-02-14T14:57:41.927Z,8.96
2017-02-14T14:58:51.488Z,8.97
2017-02-14T15:00:00.238Z,8.9
2017-02-14T15:01:09.388Z,8.89
2017-02-14T15:02:18.119Z,8.86
2017-02-14T15:03:26.840Z,8.86
2017-02-14T15:04:35.598Z,8.77
2017-02-14T15:05:44.775Z,8.78
2017-02-14T15:06:53.498Z,8.75
2017-02-14T15:08:02.628Z,8.66
2017-02-14T15:09:11.375Z,8.74